createdAt,value
2022-10-02T00:01:51.133Z,96590.88
2022-10-02T00:04:23.842Z,96592.34
2022-10-02T00:06:54.551Z,96585.56
2022-10-02T00:09:28.969Z,96573.94
2022-10-02T00:11:59.022Z,96580.69
2022-10-02T00:14:30.304Z,96579.13
2022-10-02T00:17:01.565Z,96586.59
2022-10-02T00:19:29.811Z,96597.16
2022-10-02T00:22:18.382Z,96605.72
2022-10-02T00:24:54.235Z,96603.94
2022-10-02T00:27:35.562Z,96606.00
2022-10-02T00:30:06.063Z,96607.63
2022-10-02T00:32:38.619Z,96618.56
2022-10-02T00:35:32.552Z,96617.94
2022-10-02T00:38:07.570Z,96629.44
2022-10-02T00:40:48.681Z,96636.66
2022-10-02T00:43:24.559Z,96638.66
2022-10-02T00:46:18.938Z,96648.97
2022-10-02T00:48:52.650Z,96641.13
2022-10-02T00:51:38.451Z,96659.38
2022-10-02T00:54:16.480Z,96654.53
2022-10-02T00:56:53.983Z,96641.28
2022-10-02T00:59:50.227Z,96659.88
2022-10-02T01:02:48.830Z,96661.78
2022-10-02T01:05:17.713Z,96667.31
2022-10-02T01:07:48.293Z,96659.09
2022-10-02T01:10:16.415Z,96645.84
2022-10-02T01:12:46.274Z,96649.88
2022-10-02T01:15:15.943Z,96650.97
2022-10-02T01:17:44.398Z,96648.84
2022-10-02T01:20:17.720Z,96653.88
2022-10-02T01:22:50.583Z,96660.38
2022-10-02T01:25:20.292Z,96673.13
2022-10-02T01:27:49.102Z,96659.34
2022-10-02T01:30:19.818Z,96659.41
2022-10-02T01:32:51.356Z,96663.03
2022-10-02T01:35:22.108Z,96659.47
2022-10-02T01:37:51.458Z,96648.72
2022-10-02T01:40:29.916Z,96631.25
2022-10-02T01:43:01.596Z,96627.75
2022-10-02T01:45:41.854Z,96625.97
2022-10-02T01:48:14.288Z,96635.88
2022-10-02T01:50:50.572Z,96625.16
2022-10-02T01:53:22.909Z,96622.72
2022-10-02T01:56:01.392Z,96621.84
2022-10-02T01:58:39.135Z,96618.78
2022-10-02T02:01:13.818Z,96609.31
2022-10-02T02:03:49.447Z,96624.97
2022-10-02T02:06:24.891Z,96626.53
2022-10-02T02:09:02.171Z,96640.47
2022-10-02T02:11:31.957Z,96654.16
2022-10-02T02:14:03.965Z,96651.00
2022-10-02T02:16:34.889Z,96651.13
2022-10-02T02:19:07.323Z,96649.38
2022-10-02T02:21:38.894Z,96651.75
2022-10-02T02:24:10.594Z,96654.19
2022-10-02T02:26:43.592Z,96659.13
2022-10-02T02:29:13.396Z,96651.44
2022-10-02T02:31:45.416Z,96647.56
2022-10-02T02:34:16.577Z,96640.34
2022-10-02T02:36:46.748Z,96630.06
2022-10-02T02:39:16.719Z,96634.53
2022-10-02T02:41:49.966Z,96624.69
2022-10-02T02:44:21.756Z,96631.78
2022-10-02T02:47:05.209Z,96636.06
2022-10-02T02:49:44.340Z,96626.34
2022-10-02T02:52:15.476Z,96627.16
2022-10-02T02:54:47.419Z,96628.47
2022-10-02T02:57:19.337Z,96636.00
2022-10-02T02:59:49.314Z,96633.31
2022-10-02T03:02:17.777Z,96650.41
2022-10-02T03:04:46.012Z,96648.13
2022-10-02T03:07:17.447Z,96648.19
2022-10-02T03:09:53.415Z,96659.22
2022-10-02T03:12:33.225Z,96651.28
2022-10-02T03:15:23.338Z,96657.09
2022-10-02T03:18:14.074Z,96658.34
2022-10-02T03:20:42.672Z,96653.28
2022-10-02T03:23:17.214Z,96654.38
2022-10-02T03:25:53.862Z,96659.72
2022-10-02T03:28:53.954Z,96652.06
2022-10-02T03:31:17.556Z,96640.13
2022-10-02T03:33:46.345Z,96637.66
2022-10-02T03:36:17.854Z,96642.47
2022-10-02T03:38:56.897Z,96641.88
2022-10-02T03:41:34.879Z,96638.03
2022-10-02T03:44:04.836Z,96622.97
2022-10-02T03:46:33.658Z,96625.31
2022-10-02T03:49:02.384Z,96631.19
2022-10-02T03:51:30.974Z,96634.06
2022-10-02T03:53:59.254Z,96634.97
2022-10-02T03:56:35.471Z,96623.06
2022-10-02T03:59:06.848Z,96618.66
2022-10-02T04:01:38.108Z,96630.72
2022-10-02T04:04:09.327Z,96625.94
2022-10-02T04:06:43.512Z,96633.53
2022-10-02T04:09:14.313Z,96629.59
2022-10-02T04:11:45.183Z,96635.59
2022-10-02T04:14:17.546Z,96640.03
2022-10-02T04:16:50.317Z,96642.31
2022-10-02T04:19:22.524Z,96643.16
2022-10-02T04:21:55.603Z,96646.72
2022-10-02T04:24:30.732Z,96637.94
2022-10-02T04:27:04.166Z,96638.78
2022-10-02T04:29:37.966Z,96637.88
2022-10-02T04:32:13.606Z,96633.91
2022-10-02T04:34:42.277Z,96641.09
2022-10-02T04:37:27.780Z,96633.19
2022-10-02T04:40:08.194Z,96632.59
2022-10-02T04:42:48.325Z,96636.97
2022-10-02T04:45:34.188Z,96643.06
2022-10-02T04:48:21.735Z,96640.94
2022-10-02T04:50:52.842Z,96645.22
2022-10-02T04:53:41.220Z,96649.00
2022-10-02T04:56:21.864Z,96655.00
2022-10-02T04:58:59.261Z,96653.50
2022-10-02T05:01:35.939Z,96640.97
2022-10-02T05:04:19.170Z,96640.19
2022-10-02T05:07:05.349Z,96651.59
2022-10-02T05:09:40.150Z,96649.88
2022-10-02T05:12:23.382Z,96643.00
2022-10-02T05:15:08.570Z,96644.25
2022-10-02T05:18:03.098Z,96648.31
2022-10-02T05:20:50.687Z,96649.88
2022-10-02T05:23:41.799Z,96640.13
2022-10-02T05:26:20.622Z,96636.19
2022-10-02T05:29:13.471Z,96643.38
2022-10-02T05:31:52.926Z,96641.34
2022-10-02T05:34:41.026Z,96641.53
2022-10-02T05:37:21.166Z,96656.34
2022-10-02T05:39:54.577Z,96651.25
2022-10-02T05:42:30.187Z,96641.81
2022-10-02T05:45:03.006Z,96646.63
2022-10-02T05:47:32.562Z,96657.66
2022-10-02T05:50:05.817Z,96651.94
2022-10-02T05:52:37.299Z,96654.28
2022-10-02T05:55:13.575Z,96654.50
2022-10-02T05:57:43.725Z,96651.44
2022-10-02T06:00:22.076Z,96643.94
2022-10-02T06:02:57.186Z,96645.72
2022-10-02T06:05:31.592Z,96656.44
2022-10-02T06:08:03.098Z,96664.31
2022-10-02T06:10:35.052Z,96659.31
2022-10-02T06:13:08.581Z,96658.91
2022-10-02T06:15:41.417Z,96662.63
2022-10-02T06:18:13.224Z,96667.47
2022-10-02T06:20:47.670Z,96667.63
2022-10-02T06:23:20.462Z,96660.56
2022-10-02T06:25:52.107Z,96659.69
2022-10-02T06:28:23.755Z,96669.56
2022-10-02T06:30:57.926Z,96661.50
2022-10-02T06:33:28.138Z,96658.69
2022-10-02T06:36:34.957Z,96659.00
2022-10-02T06:39:12.394Z,96662.06
2022-10-02T06:41:48.198Z,96667.00
2022-10-02T06:44:21.245Z,96667.25
2022-10-02T06:46:58.824Z,96659.44
2022-10-02T06:49:36.316Z,96664.75
2022-10-02T06:52:13.491Z,96675.97
2022-10-02T06:54:50.114Z,96664.94
2022-10-02T06:57:28.133Z,96664.38
2022-10-02T07:00:05.538Z,96667.63
2022-10-02T07:02:57.436Z,96657.19
2022-10-02T07:05:50.093Z,96656.28
2022-10-02T07:08:27.909Z,96663.06
2022-10-02T07:11:00.986Z,96666.06
2022-10-02T07:13:38.202Z,96676.72
2022-10-02T07:16:24.821Z,96678.38
2022-10-02T07:19:21.162Z,96677.03
2022-10-02T07:21:58.543Z,96683.22
2022-10-02T07:24:44.768Z,96672.03
2022-10-02T07:27:18.890Z,96675.59
2022-10-02T07:29:51.510Z,96679.56
2022-10-02T07:32:52.549Z,96685.28
2022-10-02T07:35:39.888Z,96686.81
2022-10-02T07:38:45.114Z,96684.06
2022-10-02T07:41:48.885Z,96676.94
2022-10-02T07:44:44.690Z,96684.84
2022-10-02T07:47:23.865Z,96684.69
2022-10-02T07:49:55.444Z,96674.97
2022-10-02T07:52:32.005Z,96671.78
2022-10-02T07:55:08.791Z,96675.84
2022-10-02T07:57:43.731Z,96666.97
2022-10-02T08:00:14.978Z,96666.00
2022-10-02T08:02:53.167Z,96660.84
2022-10-02T08:05:23.344Z,96678.38
2022-10-02T08:07:55.463Z,96659.16
2022-10-02T08:10:26.738Z,96654.50
2022-10-02T08:13:04.589Z,96655.88
2022-10-02T08:15:38.778Z,96657.88
2022-10-02T08:18:33.523Z,96659.03
2022-10-02T08:21:03.463Z,96650.66
2022-10-02T08:23:37.691Z,96653.28
2022-10-02T08:26:09.872Z,96658.97
2022-10-02T08:28:45.057Z,96652.44
2022-10-02T08:31:14.827Z,96656.56
2022-10-02T08:33:43.527Z,96658.69
2022-10-02T08:36:44.980Z,96665.63
2022-10-02T08:39:24.744Z,96654.13
2022-10-02T08:42:17.443Z,96653.31
2022-10-02T08:45:21.582Z,96657.44
2022-10-02T08:48:33.723Z,96651.16
2022-10-02T08:51:31.836Z,96650.25
2022-10-02T08:54:39.534Z,96654.06
2022-10-02T08:57:19.523Z,96645.16
2022-10-02T09:00:14.404Z,96633.22
2022-10-02T09:03:25.825Z,96624.94
2022-10-02T09:06:32.215Z,96616.97
2022-10-02T09:09:45.554Z,96613.03
2022-10-02T09:12:58.328Z,96619.28
2022-10-02T09:15:41.441Z,96609.34
2022-10-02T09:18:22.526Z,96617.66
2022-10-02T09:21:15.629Z,96624.06
2022-10-02T09:24:12.574Z,96610.94
2022-10-02T09:26:53.235Z,96602.03
2022-10-02T09:29:57.063Z,96593.91
2022-10-02T09:33:03.603Z,96576.13
2022-10-02T09:36:02.855Z,96578.69
2022-10-02T09:38:58.355Z,96583.69
2022-10-02T09:41:55.997Z,96576.72
2022-10-02T09:44:44.847Z,96572.78
2022-10-02T09:47:49.441Z,96566.66
2022-10-02T09:50:48.882Z,96566.47
2022-10-02T09:53:56.087Z,96553.41
2022-10-02T09:57:02.607Z,96555.75
2022-10-02T09:59:42.694Z,96545.09
2022-10-02T10:02:54.569Z,96547.19
2022-10-02T10:06:10.552Z,96546.88
2022-10-02T10:08:50.882Z,96537.53
2022-10-02T10:11:40.014Z,96541.13
2022-10-02T10:14:25.591Z,96536.66
2022-10-02T10:17:44.250Z,96541.88
2022-10-02T10:20:37.081Z,96537.13
2022-10-02T10:23:42.592Z,96529.03
2022-10-02T10:26:27.634Z,96536.06
2022-10-02T10:29:22.082Z,96530.28
2022-10-02T10:32:26.323Z,96511.38
2022-10-02T10:35:24.256Z,96510.81
2022-10-02T10:38:14.805Z,96494.09
2022-10-02T10:41:11.122Z,96489.41
2022-10-02T10:44:21.947Z,96488.78
2022-10-02T10:47:01.029Z,96486.19
2022-10-02T10:49:47.652Z,96495.72
2022-10-02T10:52:22.706Z,96494.47
2022-10-02T10:54:57.251Z,96490.31
2022-10-02T10:57:39.454Z,96487.56
2022-10-02T11:00:17.107Z,96478.28
2022-10-02T11:03:13.739Z,96491.75
2022-10-02T11:06:22.131Z,96481.59
2022-10-02T11:09:40.008Z,96463.78
2022-10-02T11:12:55.801Z,96471.94
2022-10-02T11:15:40.378Z,96470.16
2022-10-02T11:18:17.161Z,96454.75
2022-10-02T11:21:17.640Z,96466.66
2022-10-02T11:23:48.955Z,96467.38
2022-10-02T11:26:34.114Z,96459.75
2022-10-02T11:29:34.633Z,96447.03
2022-10-02T11:32:14.654Z,96436.97
2022-10-02T11:35:02.677Z,96441.34
2022-10-02T11:37:43.591Z,96439.94
2022-10-02T11:40:22.516Z,96423.72
2022-10-02T11:43:13.862Z,96414.97
2022-10-02T11:46:01.395Z,96407.69
2022-10-02T11:48:57.105Z,96394.38
2022-10-02T11:51:46.388Z,96400.47
2022-10-02T11:54:37.266Z,96390.66
2022-10-02T11:57:21.482Z,96391.41
2022-10-02T12:00:09.558Z,96386.19
2022-10-02T12:02:42.968Z,96389.13
2022-10-02T12:05:24.076Z,96399.38
2022-10-02T12:07:59.443Z,96391.16
2022-10-02T12:10:42.201Z,96383.41
2022-10-02T12:13:43.141Z,96377.66
2022-10-02T12:16:18.200Z,96372.41
2022-10-02T12:18:59.167Z,96365.88
2022-10-02T12:22:05.118Z,96364.94
2022-10-02T12:24:55.832Z,96374.09
2022-10-02T12:27:33.400Z,96373.59
2022-10-02T12:30:07.648Z,96359.34
2022-10-02T12:32:57.305Z,96358.09
2022-10-02T12:35:52.274Z,96365.63
2022-10-02T12:38:28.681Z,96436.59
2022-10-02T12:41:09.150Z,96388.38
2022-10-02T12:44:00.355Z,96378.03
2022-10-02T12:46:48.102Z,96404.31
2022-10-02T12:49:35.355Z,96398.31
2022-10-02T12:52:18.466Z,96401.97
2022-10-02T12:55:03.907Z,96406.59
2022-10-02T12:57:55.367Z,96436.78
2022-10-02T13:00:29.003Z,96443.66
2022-10-02T13:03:35.997Z,96430.13
2022-10-02T13:06:36.697Z,96442.34
2022-10-02T13:09:29.706Z,96437.50
2022-10-02T13:12:12.870Z,96451.22
2022-10-02T13:14:54.903Z,96445.72
2022-10-02T13:17:30.898Z,96436.44
2022-10-02T13:20:05.861Z,96465.22
2022-10-02T13:22:43.446Z,96444.94
2022-10-02T13:25:38.999Z,96461.97
2022-10-02T13:28:21.346Z,96457.63
2022-10-02T13:30:57.482Z,96451.59
2022-10-02T13:33:41.816Z,96456.91
2022-10-02T13:36:16.417Z,96452.84
2022-10-02T13:39:01.535Z,96449.00
2022-10-02T13:41:48.894Z,96451.94
2022-10-02T13:44:24.261Z,96439.22
2022-10-02T13:47:09.515Z,96452.28
2022-10-02T13:49:51.611Z,96437.38
2022-10-02T13:52:25.719Z,96441.75
2022-10-02T13:55:14.088Z,96441.94
2022-10-02T13:57:52.209Z,96436.13
2022-10-02T14:00:25.061Z,96449.69
2022-10-02T14:05:57.766Z,96438.09
2022-10-02T14:08:47.701Z,96441.53
2022-10-02T14:11:24.345Z,96441.13
2022-10-02T14:14:03.897Z,96445.53
2022-10-02T14:16:42.875Z,96448.25
2022-10-02T14:19:28.886Z,96455.00
2022-10-02T14:22:08.150Z,96446.47
2022-10-02T14:25:04.177Z,96456.44
2022-10-02T14:28:09.868Z,96462.66
2022-10-02T14:30:48.167Z,96470.91
2022-10-02T14:33:22.231Z,96480.41
2022-10-02T14:35:53.462Z,96484.47
2022-10-02T14:38:32.613Z,96492.47
2022-10-02T14:41:10.805Z,96487.72
2022-10-02T14:44:03.118Z,96489.16
2022-10-02T14:46:40.442Z,96486.25
2022-10-02T14:49:19.665Z,96510.16
2022-10-02T14:51:59.649Z,96513.66
2022-10-02T14:54:36.137Z,96527.63
2022-10-02T14:57:19.641Z,96538.00
2022-10-02T15:00:03.547Z,96526.59
2022-10-02T15:02:56.791Z,96522.38
2022-10-02T15:05:39.153Z,96514.31
2022-10-02T15:08:14.098Z,96509.13
2022-10-02T15:10:43.358Z,96524.81
2022-10-02T15:13:15.945Z,96507.19
2022-10-02T15:16:09.984Z,96491.88
2022-10-02T15:18:40.350Z,96472.53
2022-10-02T15:21:27.018Z,96478.75
2022-10-02T15:23:58.454Z,96474.59
2022-10-02T15:26:37.965Z,96468.22
2022-10-02T15:29:21.109Z,96484.59
2022-10-02T15:32:11.949Z,96486.31
2022-10-02T15:34:46.928Z,96499.25
2022-10-02T15:37:22.373Z,96498.16
2022-10-02T15:40:00.935Z,96500.88
2022-10-02T15:42:49.709Z,96495.16
2022-10-02T15:45:36.431Z,96498.63
2022-10-02T15:48:20.357Z,96496.56
2022-10-02T15:50:53.858Z,96496.63
2022-10-02T15:53:32.655Z,96504.59
2022-10-02T15:56:13.049Z,96499.50
2022-10-02T15:58:59.317Z,96495.53
2022-10-02T16:01:41.462Z,96504.22
2022-10-02T16:04:19.065Z,96506.69
2022-10-02T16:07:11.134Z,96501.13
2022-10-02T16:09:49.074Z,96505.88
2022-10-02T16:12:41.007Z,96504.22
2022-10-02T16:15:17.267Z,96507.09
2022-10-02T16:17:58.668Z,96517.03
2022-10-02T16:20:51.584Z,96536.41
2022-10-02T16:23:29.769Z,96538.00
2022-10-02T16:26:16.098Z,96546.84
2022-10-02T16:28:53.159Z,96542.97
2022-10-02T16:31:46.863Z,96541.28
2022-10-02T16:34:25.363Z,96532.84
2022-10-02T16:36:56.412Z,96551.75
2022-10-02T16:39:34.758Z,96564.22
2022-10-02T16:42:10.949Z,96566.41
2022-10-02T16:45:03.866Z,96562.16
2022-10-02T16:47:42.557Z,96558.22
2022-10-02T16:50:19.463Z,96561.56
2022-10-02T16:52:53.310Z,96547.66
2022-10-02T16:55:26.619Z,96554.41
2022-10-02T16:58:00.934Z,96552.22
2022-10-02T17:00:32.883Z,96564.75
2022-10-02T17:05:55.350Z,96581.47
2022-10-02T17:08:31.332Z,96566.03
2022-10-02T17:11:21.603Z,96577.19
2022-10-02T17:14:00.187Z,96583.50
2022-10-02T17:16:35.127Z,96589.25
2022-10-02T17:19:18.180Z,96591.34
2022-10-02T17:21:51.063Z,96596.00
2022-10-02T17:24:26.093Z,96593.50
2022-10-02T17:27:01.776Z,96599.19
2022-10-02T17:29:35.608Z,96606.06
2022-10-02T17:32:06.065Z,96601.56
2022-10-02T17:34:45.721Z,96612.44
2022-10-02T17:37:51.722Z,96627.56
2022-10-02T17:40:25.411Z,96643.72
2022-10-02T17:42:59.621Z,96639.84
2022-10-02T17:45:34.307Z,96641.97
2022-10-02T17:48:24.324Z,96633.75
2022-10-02T17:51:03.516Z,96620.94
2022-10-02T17:54:02.341Z,96626.00
2022-10-02T17:56:49.960Z,96636.25
2022-10-02T17:59:48.344Z,96648.75
2022-10-02T18:02:35.376Z,96658.25
2022-10-02T18:05:17.749Z,96665.75
2022-10-02T18:07:58.828Z,96657.88
2022-10-02T18:10:32.281Z,96653.13
2022-10-02T18:13:26.005Z,96663.88
2022-10-02T18:16:06.914Z,96673.16
2022-10-02T18:18:40.067Z,96679.69
2022-10-02T18:21:24.300Z,96661.06
2022-10-02T18:24:11.530Z,96675.03
2022-10-02T18:26:50.641Z,96681.44
2022-10-02T18:29:33.402Z,96695.53
2022-10-02T18:32:12.822Z,96700.63
2022-10-02T18:34:59.758Z,96704.63
2022-10-02T18:37:50.143Z,96699.72
2022-10-02T18:40:23.892Z,96695.41
2022-10-02T18:43:03.812Z,96695.53
2022-10-02T18:45:44.572Z,96709.03
2022-10-02T18:48:46.388Z,96709.59
2022-10-02T18:51:23.850Z,96712.06
2022-10-02T18:54:03.127Z,96725.88
2022-10-02T18:56:53.495Z,96715.28
2022-10-02T18:59:30.187Z,96708.09
2022-10-02T19:02:14.258Z,96699.81
2022-10-02T19:05:10.932Z,96698.97
2022-10-02T19:07:42.041Z,96698.28
2022-10-02T19:10:23.213Z,96693.03
2022-10-02T19:12:53.670Z,96697.03
2022-10-02T19:15:27.175Z,96702.56
2022-10-02T19:18:01.390Z,96707.72
2022-10-02T19:20:37.412Z,96703.25
2022-10-02T19:23:08.330Z,96718.53
2022-10-02T19:25:37.406Z,96715.22
2022-10-02T19:28:07.480Z,96723.16
2022-10-02T19:30:36.125Z,96725.28
2022-10-02T19:33:09.610Z,96727.81
2022-10-02T19:35:42.493Z,96730.78
2022-10-02T19:38:13.344Z,96730.00
2022-10-02T19:40:41.770Z,96734.34
2022-10-02T19:43:15.812Z,96737.34
2022-10-02T19:45:44.332Z,96740.50
2022-10-02T19:48:19.185Z,96726.66
2022-10-02T19:50:51.388Z,96730.38
2022-10-02T19:53:23.323Z,96743.16
2022-10-02T19:55:55.682Z,96743.19
2022-10-02T19:58:29.419Z,96750.75
2022-10-02T20:00:58.211Z,96753.09
2022-10-02T20:03:28.294Z,96748.84
2022-10-02T20:06:01.599Z,96754.72
2022-10-02T20:08:32.028Z,96752.56
2022-10-02T20:11:03.534Z,96754.75
2022-10-02T20:13:37.491Z,96760.31
2022-10-02T20:16:28.222Z,96761.34
2022-10-02T20:18:57.950Z,96761.91
2022-10-02T20:21:35.280Z,96758.13
2022-10-02T20:24:04.842Z,96763.88
2022-10-02T20:26:34.037Z,96764.59
2022-10-02T20:29:04.661Z,96772.50
2022-10-02T20:31:38.573Z,96777.41
2022-10-02T20:34:15.373Z,96770.94
2022-10-02T20:36:54.071Z,96759.44
2022-10-02T20:39:24.463Z,96754.84
2022-10-02T20:41:57.569Z,96763.47
2022-10-02T20:44:26.219Z,96763.25
2022-10-02T20:47:33.986Z,96768.41
2022-10-02T20:50:35.905Z,96782.72
2022-10-02T20:53:34.099Z,96797.81
2022-10-02T20:56:08.986Z,96803.44
2022-10-02T20:59:01.948Z,96815.25
2022-10-02T21:01:36.109Z,96810.06
2022-10-02T21:04:46.518Z,96814.50
2022-10-02T21:07:42.199Z,96824.03
2022-10-02T21:10:45.122Z,96824.84
2022-10-02T21:13:37.077Z,96827.38
2022-10-02T21:16:49.894Z,96820.31
2022-10-02T21:19:41.849Z,96826.19
2022-10-02T21:22:47.736Z,96831.38
2022-10-02T21:25:52.687Z,96837.69
2022-10-02T21:28:57.211Z,96839.56
2022-10-02T21:34:32.849Z,96839.25
2022-10-02T21:37:09.606Z,96842.53
2022-10-02T21:43:17.291Z,96847.03
2022-10-02T21:46:24.960Z,96849.84
2022-10-02T21:49:45.147Z,96851.75
2022-10-02T21:52:54.344Z,96861.69
2022-10-02T21:55:56.192Z,96865.69
2022-10-02T21:59:01.535Z,96871.06
2022-10-02T22:02:07.830Z,96878.41
2022-10-02T22:05:19.150Z,96864.63
2022-10-02T22:07:52.598Z,96882.22
2022-10-02T22:10:26.682Z,96869.09
2022-10-02T22:13:06.928Z,96877.50
2022-10-02T22:15:42.464Z,96888.75
2022-10-02T22:18:16.066Z,96886.38
2022-10-02T22:21:04.860Z,96886.88
2022-10-02T22:24:00.493Z,96891.13
2022-10-02T22:26:39.591Z,96896.25
2022-10-02T22:29:14.801Z,96903.53
2022-10-02T22:32:17.766Z,96903.03
2022-10-02T22:34:50.698Z,96906.16
2022-10-02T22:37:30.169Z,96917.94
2022-10-02T22:40:03.351Z,96911.56
2022-10-02T22:42:38.181Z,96915.44
2022-10-02T22:45:17.893Z,96921.13
2022-10-02T22:47:51.764Z,96912.13
2022-10-02T22:50:25.417Z,96926.91
2022-10-02T22:52:56.245Z,96923.44
2022-10-02T22:55:29.236Z,96927.38
2022-10-02T22:58:01.598Z,96930.53
2022-10-02T23:00:35.233Z,96945.28
2022-10-02T23:03:07.463Z,96930.75
2022-10-02T23:05:41.853Z,96924.09
2022-10-02T23:08:19.090Z,96924.88
2022-10-02T23:10:50.977Z,96936.19
2022-10-02T23:13:23.392Z,96937.56
2022-10-02T23:15:57.939Z,96935.03
2022-10-02T23:18:34.585Z,96938.78
2022-10-02T23:21:07.266Z,96946.59
2022-10-02T23:23:50.303Z,96941.63
2022-10-02T23:26:20.873Z,96940.91
2022-10-02T23:28:51.658Z,96946.06
2022-10-02T23:31:30.383Z,96949.63
2022-10-02T23:34:11.160Z,96953.97
2022-10-02T23:36:45.549Z,96949.78
2022-10-02T23:39:17.257Z,96948.25
2022-10-02T23:41:48.720Z,96944.13
2022-10-02T23:44:25.741Z,96953.03
2022-10-02T23:47:12.317Z,96955.13
2022-10-02T23:49:44.082Z,96948.22
2022-10-02T23:52:53.235Z,96944.09
2022-10-02T23:55:39.838Z,96941.91
2022-10-02T23:58:18.598Z,96943.47
